This is the latest recevied weather packets stored in our database for station/object WMKD. If no packets are shown the sender has not sent any weather packets the latest 10 day(s).
| Time | Temp. | Humidity | Pressure | Rain* | Wind** | Luminosity | Snow |
|---|---|---|---|---|---|---|---|
| 1788131650 | 77° F | 94% | 759.1 mmHg | - | - | - | - |
| 1788128051 | 78° F | 88% | 758.3 mmHg | - | - | - | - |
| 1788124451 | 77° F | 94% | 758.3 mmHg | - | - | - | - |
| 1788120855 | 77° F | 94% | 758.3 mmHg | - | - | - | - |
| 1788119047 | 78° F | 88% | 758.3 mmHg | - | - | - | - |
| 1788117250 | 78° F | 94% | 759.1 mmHg | - | - | - | - |
| 1788113649 | 78° F | 94% | 759.1 mmHg | - | - | - | - |
| 1788110646 | 78° F | 94% | 759.8 mmHg | - | - | - | - |
| 1788110051 | 80° F | 88% | 759.1 mmHg | - | - | - | - |
| 1788106453 | 80° F | 88% | 759.1 mmHg | - | - | - | - |
| 1788102849 | 80° F | 88% | 759.1 mmHg | - | - | - | - |
| 1788099249 | 80° F | 88% | 759.1 mmHg | - | - | - | - |
| 1788095650 | 82° F | 78% | 758.3 mmHg | - | - | - | - |
| 1788092052 | 86° F | 79% | 757.6 mmHg | - | - | - | - |
| 1788088449 | 87° F | 74% | 757.6 mmHg | - | - | - | - |
| 1788084849 | 89° F | 74% | 756.8 mmHg | - | - | - | - |
| 1788081250 | 91° F | 70% | 756.8 mmHg | - | - | - | - |
| 1788077651 | 91° F | 70% | 756.8 mmHg | - | - | - | - |
| 1788074048 | 93° F | 59% | 756.8 mmHg | - | - | - | - |
| 1788070448 | 91° F | 66% | 758.3 mmHg | - | - | - | - |
| 1788066850 | 89° F | 70% | 758.3 mmHg | - | - | - | - |
| 1788063248 | 87° F | 70% | 759.8 mmHg | - | - | - | - |
| 1788059652 | 86° F | 74% | 759.8 mmHg | - | - | - | - |
| 1788056048 | 82° F | 83% | 759.8 mmHg | - | - | - | - |
| 1788052451 | 78° F | 88% | 759.8 mmHg | - | - | - | - |
* Rain since midnight (hover to see other rain measurements)
** Current wind speed in m/s (hover to see current wind gust speed)